Time;durP1;ratioP1;P1;durP2;ratioP2;P2;SDS_P1;SDS_P2;PMS_P1;PMS_P2;Temp;Humidity;BMP_temperature;BMP_pressure;BME280_temperature;BME280_humidity;BME280_pressure;Samples;Min_cycle;Max_cycle;Signal;HPM_P1;HPM_P2
2022/01/05 00:01:25;;;;;;;2.88;1.13;;;;;;;;;;5058984;28;20521;-61
2022/01/05 00:03:52;;;;;;;2.42;1.10;;;;;;;;;;5060263;28;20432;-60
2022/01/05 00:06:18;;;;;;;2.88;1.20;;;;;;;;;;5058504;28;20043;-62
2022/01/05 00:08:44;;;;;;;4.68;1.60;;;;;;;;;;5064280;28;20028;-59
2022/01/05 00:11:10;;;;;;;2.03;0.90;;;;;;;;;;5060069;28;20052;-60
2022/01/05 00:13:37;;;;;;;2.30;1.33;;;;;;;;;;5058273;28;20031;-60
2022/01/05 00:16:03;;;;;;;2.03;0.95;;;;;;;;;;5061857;28;20024;-59
2022/01/05 00:18:29;;;;;;;2.72;1.73;;;;;;;;;;5059838;28;20012;-60
2022/01/05 00:20:56;;;;;;;1.52;0.90;;;;;;;;;;5060748;28;20021;-59
2022/01/05 00:23:22;;;;;;;3.20;1.10;;;;;;;;;;5058895;28;20116;-60
2022/01/05 00:25:48;;;;;;;2.30;1.20;;;;;;;;;;5058615;28;20115;-59
2022/01/05 00:28:14;;;;;;;3.67;1.60;;;;;;;;;;5060136;28;20021;-61
2022/01/05 00:30:40;;;;;;;1.42;0.85;;;;;;;;;;5057745;28;20025;-59
2022/01/05 00:33:06;;;;;;;2.63;0.90;;;;;;;;;;5043485;28;20107;-59
2022/01/05 00:35:32;;;;;;;2.72;1.02;;;;;;;;;;5055536;28;20033;-59
2022/01/05 00:37:59;;;;;;;2.10;1.00;;;;;;;;;;5066698;28;20044;-61
2022/01/05 00:40:25;;;;;;;3.40;1.40;;;;;;;;;;5077845;28;20427;-58
2022/01/05 00:42:51;;;;;;;2.05;0.82;;;;;;;;;;5077988;28;20072;-60
2022/01/05 00:45:17;;;;;;;1.83;1.08;;;;;;;;;;5078880;28;20024;-62
2022/01/05 00:47:43;;;;;;;1.77;0.80;;;;;;;;;;5081147;28;20023;-59
2022/01/05 00:50:10;;;;;;;1.35;1.00;;;;;;;;;;5082244;28;20020;-59
2022/01/05 00:52:36;;;;;;;1.00;0.73;;;;;;;;;;5078908;28;20810;-59
2022/01/05 00:55:02;;;;;;;2.05;0.70;;;;;;;;;;5081608;28;20017;-59
2022/01/05 00:57:28;;;;;;;4.05;0.80;;;;;;;;;;5078139;28;20173;-59
2022/01/05 00:59:54;;;;;;;3.50;1.10;;;;;;;;;;5079335;28;20496;-59
2022/01/05 01:02:20;;;;;;;1.10;0.70;;;;;;;;;;5081354;28;20033;-62
2022/01/05 01:04:46;;;;;;;1.67;0.73;;;;;;;;;;5079046;28;20021;-59
2022/01/05 01:07:12;;;;;;;1.70;0.80;;;;;;;;;;5080653;28;20047;-60
2022/01/05 01:09:38;;;;;;;0.98;0.63;;;;;;;;;;5077791;28;20028;-59
2022/01/05 01:12:04;;;;;;;2.47;1.20;;;;;;;;;;5081961;28;20059;-59
2022/01/05 01:14:31;;;;;;;1.70;0.82;;;;;;;;;;5082010;28;20044;-59
2022/01/05 01:16:57;;;;;;;1.45;1.00;;;;;;;;;;5084725;28;20024;-59
2022/01/05 01:19:23;;;;;;;3.55;0.65;;;;;;;;;;5078885;28;20071;-59
2022/01/05 01:21:49;;;;;;;1.02;0.75;;;;;;;;;;5081080;28;20028;-59
2022/01/05 01:24:15;;;;;;;1.55;1.17;;;;;;;;;;5081882;28;20346;-59
2022/01/05 01:26:41;;;;;;;1.20;0.70;;;;;;;;;;5084429;28;20106;-59
2022/01/05 01:29:07;;;;;;;1.27;0.80;;;;;;;;;;5083969;28;20134;-59
2022/01/05 01:31:33;;;;;;;0.85;0.55;;;;;;;;;;5082674;28;20020;-59
2022/01/05 01:33:59;;;;;;;2.05;1.08;;;;;;;;;;5084947;28;20054;-59
2022/01/05 01:36:25;;;;;;;0.60;0.60;;;;;;;;;;5079206;28;20016;-59
2022/01/05 01:38:51;;;;;;;1.65;1.05;;;;;;;;;;5062520;28;20418;-59
2022/01/05 01:41:17;;;;;;;0.60;0.55;;;;;;;;;;5061574;28;20033;-62
2022/01/05 01:43:43;;;;;;;0.90;0.65;;;;;;;;;;5064113;28;20461;-59
2022/01/05 01:46:09;;;;;;;1.10;0.80;;;;;;;;;;5062879;28;20104;-59
2022/01/05 01:48:36;;;;;;;1.55;0.70;;;;;;;;;;5062640;28;20065;-59
2022/01/05 01:51:02;;;;;;;1.08;0.50;;;;;;;;;;5059347;28;20033;-58
2022/01/05 01:53:28;;;;;;;0.98;0.50;;;;;;;;;;5054221;28;20059;-59
2022/01/05 01:55:55;;;;;;;1.45;0.57;;;;;;;;;;5054555;28;20021;-59
2022/01/05 01:58:22;;;;;;;1.85;0.65;;;;;;;;;;5062798;28;20056;-61
2022/01/05 02:00:48;;;;;;;1.15;0.60;;;;;;;;;;5074115;28;20025;-59
2022/01/05 02:03:15;;;;;;;1.00;0.63;;;;;;;;;;5074280;28;20047;-58
2022/01/05 02:05:41;;;;;;;2.28;0.60;;;;;;;;;;5073547;28;20094;-59
2022/01/05 02:08:07;;;;;;;1.33;0.57;;;;;;;;;;5059848;28;20036;-59
2022/01/05 02:10:33;;;;;;;0.63;0.50;;;;;;;;;;5053354;28;20470;-58
2022/01/05 02:12:59;;;;;;;0.98;0.60;;;;;;;;;;5060674;28;20032;-58
2022/01/05 02:15:25;;;;;;;0.80;0.50;;;;;;;;;;5073175;28;20017;-59
2022/01/05 02:18:09;;;;;;;0.95;0.40;;;;;;;;;;5062124;28;20024;-58
2022/01/05 02:20:35;;;;;;;0.85;0.57;;;;;;;;;;5053208;28;20029;-58
2022/01/05 02:23:01;;;;;;;0.50;0.30;;;;;;;;;;5056138;28;20041;-58
2022/01/05 02:25:28;;;;;;;0.77;0.50;;;;;;;;;;5073192;28;20025;-59
2022/01/05 02:27:55;;;;;;;0.65;0.55;;;;;;;;;;5072949;28;20028;-58
2022/01/05 02:30:23;;;;;;;1.23;0.70;;;;;;;;;;5063219;28;20041;-62
2022/01/05 02:32:49;;;;;;;0.65;0.57;;;;;;;;;;5053919;28;20029;-58
2022/01/05 02:35:15;;;;;;;0.75;0.50;;;;;;;;;;5060739;28;20029;-58
2022/01/05 02:37:45;;;;;;;0.40;0.32;;;;;;;;;;5072950;28;20053;-58
2022/01/05 02:40:13;;;;;;;0.93;0.47;;;;;;;;;;5073613;28;20078;-58
2022/01/05 02:42:39;;;;;;;0.55;0.47;;;;;;;;;;5072510;28;20075;-59
2022/01/05 02:45:05;;;;;;;0.98;0.50;;;;;;;;;;5036627;28;20024;-58
2022/01/05 02:47:31;;;;;;;1.00;0.70;;;;;;;;;;5052606;28;20490;-58
2022/01/05 02:49:58;;;;;;;0.68;0.50;;;;;;;;;;5054299;28;20033;-58
2022/01/05 02:52:24;;;;;;;0.60;0.30;;;;;;;;;;5052776;28;20025;-59
2022/01/05 02:54:50;;;;;;;2.50;0.50;;;;;;;;;;5053524;28;20103;-58
2022/01/05 02:57:16;;;;;;;0.32;0.32;;;;;;;;;;5053512;28;20032;-58
2022/01/05 02:59:42;;;;;;;0.75;0.43;;;;;;;;;;5072114;28;20027;-58
2022/01/05 03:02:08;;;;;;;0.52;0.50;;;;;;;;;;5053727;28;20040;-59
2022/01/05 03:04:34;;;;;;;1.13;0.50;;;;;;;;;;5058518;28;20032;-58
2022/01/05 03:07:00;;;;;;;0.55;0.50;;;;;;;;;;5072765;28;20024;-59
2022/01/05 03:09:26;;;;;;;0.45;0.38;;;;;;;;;;5072331;28;20033;-59
2022/01/05 03:11:52;;;;;;;1.42;0.60;;;;;;;;;;5068929;28;20446;-58
2022/01/05 03:14:19;;;;;;;1.42;0.50;;;;;;;;;;5035025;28;20028;-58
2022/01/05 03:16:45;;;;;;;0.45;0.45;;;;;;;;;;5052137;28;20489;-58
2022/01/05 03:19:11;;;;;;;1.35;0.57;;;;;;;;;;5069488;28;20469;-58
2022/01/05 03:21:37;;;;;;;1.35;0.57;;;;;;;;;;5071759;28;20028;-58
2022/01/05 03:24:03;;;;;;;0.73;0.32;;;;;;;;;;5062071;28;20024;-59
2022/01/05 03:26:29;;;;;;;0.30;0.30;;;;;;;;;;5051687;28;20032;-58
2022/01/05 03:28:55;;;;;;;0.60;0.50;;;;;;;;;;5052828;28;20025;-58
2022/01/05 03:31:21;;;;;;;0.47;0.40;;;;;;;;;;5052223;28;20078;-61
2022/01/05 03:33:47;;;;;;;0.38;0.38;;;;;;;;;;5070211;28;20035;-58
2022/01/05 03:36:13;;;;;;;0.70;0.70;;;;;;;;;;5054804;28;20025;-60
2022/01/05 03:38:39;;;;;;;0.40;0.30;;;;;;;;;;5051858;28;20025;-59
2022/01/05 03:41:05;;;;;;;2.53;0.70;;;;;;;;;;5049152;28;20358;-58
2022/01/05 03:43:31;;;;;;;0.63;0.32;;;;;;;;;;5071700;28;20036;-58
2022/01/05 03:45:57;;;;;;;0.73;0.43;;;;;;;;;;5072227;28;20021;-58
2022/01/05 03:48:23;;;;;;;0.30;0.30;;;;;;;;;;5071440;28;20031;-61
2022/01/05 03:50:49;;;;;;;0.68;0.40;;;;;;;;;;5071968;28;20024;-58
2022/01/05 03:53:15;;;;;;;0.43;0.35;;;;;;;;;;5053197;28;20067;-58
2022/01/05 03:55:42;;;;;;;0.75;0.32;;;;;;;;;;5061836;28;20603;-58
2022/01/05 03:58:08;;;;;;;0.40;0.30;;;;;;;;;;5052993;28;20025;-58
2022/01/05 04:00:37;;;;;;;0.50;0.47;;;;;;;;;;5051402;28;20021;-58
2022/01/05 04:03:03;;;;;;;0.60;0.32;;;;;;;;;;5051997;28;20029;-58
2022/01/05 04:05:29;;;;;;;0.70;0.52;;;;;;;;;;5062579;28;20050;-58
2022/01/05 04:07:56;;;;;;;1.00;0.30;;;;;;;;;;5065794;28;20025;-58
2022/01/05 04:10:22;;;;;;;0.40;0.32;;;;;;;;;;5051697;28;20033;-61
2022/01/05 04:12:48;;;;;;;0.82;0.40;;;;;;;;;;5052012;28;20078;-59
2022/01/05 04:15:15;;;;;;;1.00;0.50;;;;;;;;;;5061208;28;20033;-58
2022/01/05 04:17:41;;;;;;;0.38;0.38;;;;;;;;;;5071054;28;20036;-58
2022/01/05 04:20:07;;;;;;;0.82;0.30;;;;;;;;;;5071291;28;20028;-59
2022/01/05 04:22:33;;;;;;;1.58;0.70;;;;;;;;;;5068026;28;20036;-58
2022/01/05 04:24:59;;;;;;;0.40;0.25;;;;;;;;;;5070084;28;20032;-59
2022/01/05 04:27:25;;;;;;;0.85;0.40;;;;;;;;;;5071133;28;20426;-62
2022/01/05 04:29:51;;;;;;;0.47;0.40;;;;;;;;;;5071841;28;20032;-58
2022/01/05 04:32:17;;;;;;;0.22;0.22;;;;;;;;;;5070654;28;20480;-59
2022/01/05 04:34:43;;;;;;;0.30;0.30;;;;;;;;;;5050953;28;20462;-59
2022/01/05 04:37:09;;;;;;;0.73;0.45;;;;;;;;;;5068674;28;20045;-58
2022/01/05 04:39:35;;;;;;;0.38;0.38;;;;;;;;;;5055112;28;20068;-59
2022/01/05 04:42:02;;;;;;;0.28;0.28;;;;;;;;;;5051485;28;20032;-58
2022/01/05 04:44:28;;;;;;;0.35;0.30;;;;;;;;;;5053405;28;20056;-59
2022/01/05 04:46:54;;;;;;;0.55;0.40;;;;;;;;;;5058154;28;20025;-58
2022/01/05 04:49:20;;;;;;;0.65;0.20;;;;;;;;;;5077176;28;20025;-60
2022/01/05 04:51:46;;;;;;;0.40;0.20;;;;;;;;;;5077703;28;20024;-58
2022/01/05 04:54:12;;;;;;;0.20;0.20;;;;;;;;;;5079207;28;20027;-58
2022/01/05 04:56:38;;;;;;;0.35;0.25;;;;;;;;;;5077397;28;20467;-59
2022/01/05 04:59:04;;;;;;;0.60;0.32;;;;;;;;;;5065267;28;20060;-58
2022/01/05 05:01:31;;;;;;;0.80;0.40;;;;;;;;;;5077504;28;20036;-59
2022/01/05 05:03:56;;;;;;;0.35;0.30;;;;;;;;;;5059761;28;20440;-58
2022/01/05 05:06:23;;;;;;;0.25;0.20;;;;;;;;;;5058520;28;20063;-61
2022/01/05 05:08:49;;;;;;;0.30;0.30;;;;;;;;;;5057620;28;20069;-57
2022/01/05 05:11:15;;;;;;;0.32;0.32;;;;;;;;;;5040285;28;20462;-54
2022/01/05 05:13:41;;;;;;;0.70;0.25;;;;;;;;;;5057194;28;20021;-58
2022/01/05 05:16:07;;;;;;;0.50;0.30;;;;;;;;;;5075672;28;20027;-58
2022/01/05 05:18:33;;;;;;;0.32;0.30;;;;;;;;;;5060089;28;20074;-58
2022/01/05 05:20:59;;;;;;;0.38;0.30;;;;;;;;;;5057715;28;20021;-59
2022/01/05 05:23:26;;;;;;;0.60;0.40;;;;;;;;;;5063072;28;20025;-61
2022/01/05 05:25:52;;;;;;;0.20;0.20;;;;;;;;;;5062375;28;20029;-58
2022/01/05 05:28:19;;;;;;;1.45;0.28;;;;;;;;;;5058098;28;20071;-58
2022/01/05 05:30:45;;;;;;;0.20;0.20;;;;;;;;;;5012121;28;20021;-59
2022/01/05 05:33:11;;;;;;;0.22;0.20;;;;;;;;;;5077900;28;20060;-58
2022/01/05 05:35:39;;;;;;;0.10;0.10;;;;;;;;;;5076976;28;20416;-59
2022/01/05 05:38:06;;;;;;;0.85;0.30;;;;;;;;;;5088379;28;20052;-58
2022/01/05 05:40:32;;;;;;;0.25;0.25;;;;;;;;;;5087051;28;20024;-58
2022/01/05 05:42:58;;;;;;;0.10;0.10;;;;;;;;;;5081219;28;20036;-58
2022/01/05 05:45:24;;;;;;;0.57;0.30;;;;;;;;;;5082786;28;20024;-58
2022/01/05 05:47:50;;;;;;;0.20;0.20;;;;;;;;;;5097647;28;20016;-58
2022/01/05 05:50:16;;;;;;;0.30;0.30;;;;;;;;;;5097735;28;20032;-59
2022/01/05 05:52:42;;;;;;;0.55;0.30;;;;;;;;;;5097653;28;20110;-58
2022/01/05 05:55:08;;;;;;;0.38;0.20;;;;;;;;;;5097591;28;20103;-58
2022/01/05 05:57:34;;;;;;;0.60;0.50;;;;;;;;;;5092604;28;20024;-59
2022/01/05 06:00:00;;;;;;;0.43;0.20;;;;;;;;;;5074957;28;20043;-58
2022/01/05 06:02:26;;;;;;;1.05;0.30;;;;;;;;;;5077919;28;20028;-61
2022/01/05 06:04:52;;;;;;;0.50;0.28;;;;;;;;;;5093012;28;20384;-59
2022/01/05 06:07:18;;;;;;;0.43;0.22;;;;;;;;;;5095195;28;20036;-59
2022/01/05 06:09:44;;;;;;;0.80;0.30;;;;;;;;;;5093368;28;20032;-58
2022/01/05 06:12:10;;;;;;;0.20;0.20;;;;;;;;;;5093867;28;20468;-57
2022/01/05 06:14:36;;;;;;;0.25;0.25;;;;;;;;;;5093991;28;20024;-58
2022/01/05 06:17:02;;;;;;;0.20;0.20;;;;;;;;;;5094531;28;20169;-58
2022/01/05 06:19:28;;;;;;;0.60;0.30;;;;;;;;;;5093091;28;20028;-62
2022/01/05 06:21:54;;;;;;;0.30;0.20;;;;;;;;;;5094027;28;20031;-59
2022/01/05 06:24:20;;;;;;;1.17;0.30;;;;;;;;;;5081878;28;20043;-58
2022/01/05 06:26:46;;;;;;;0.13;0.13;;;;;;;;;;5093687;28;20020;-58
2022/01/05 06:29:13;;;;;;;0.57;0.57;;;;;;;;;;5094545;28;20073;-58
2022/01/05 06:31:40;;;;;;;0.60;0.20;;;;;;;;;;5073258;28;20032;-58
2022/01/05 06:34:06;;;;;;;0.43;0.35;;;;;;;;;;5088006;28;20093;-59
2022/01/05 06:36:32;;;;;;;0.47;0.10;;;;;;;;;;5089858;28;20079;-59
2022/01/05 06:38:58;;;;;;;0.38;0.35;;;;;;;;;;5055897;28;20050;-58
2022/01/05 06:41:24;;;;;;;0.40;0.22;;;;;;;;;;5055774;28;20378;-59
2022/01/05 06:43:50;;;;;;;1.15;0.50;;;;;;;;;;5053069;28;20045;-59
2022/01/05 06:46:16;;;;;;;0.30;0.30;;;;;;;;;;5053845;28;20557;-58
2022/01/05 06:48:42;;;;;;;0.20;0.20;;;;;;;;;;5065938;28;20039;-58
2022/01/05 06:51:08;;;;;;;0.20;0.20;;;;;;;;;;5073953;28;20099;-58
2022/01/05 06:53:34;;;;;;;0.30;0.20;;;;;;;;;;5072283;28;20444;-59
2022/01/05 06:56:00;;;;;;;0.65;0.30;;;;;;;;;;5073343;28;20500;-58
2022/01/05 06:58:26;;;;;;;0.80;0.20;;;;;;;;;;5056127;28;20417;-63
2022/01/05 07:00:52;;;;;;;0.20;0.20;;;;;;;;;;5053044;28;20021;-58
2022/01/05 07:03:18;;;;;;;0.75;0.25;;;;;;;;;;5035446;28;20386;-58
2022/01/05 07:05:44;;;;;;;1.50;0.40;;;;;;;;;;5051842;28;20536;-58
2022/01/05 07:08:10;;;;;;;0.30;0.20;;;;;;;;;;5052141;28;20041;-48
2022/01/05 07:10:36;;;;;;;0.50;0.30;;;;;;;;;;5052141;28;20020;-51
2022/01/05 07:13:02;;;;;;;0.47;0.40;;;;;;;;;;5053489;28;20025;-54
2022/01/05 07:15:28;;;;;;;1.17;0.20;;;;;;;;;;5070383;28;20067;-61
2022/01/05 07:17:54;;;;;;;0.98;0.38;;;;;;;;;;5072448;28;20424;-47
2022/01/05 07:20:20;;;;;;;0.30;0.25;;;;;;;;;;5058087;28;20028;-52
2022/01/05 07:22:47;;;;;;;0.90;0.38;;;;;;;;;;5071879;28;20025;-58
2022/01/05 07:25:13;;;;;;;7.03;1.25;;;;;;;;;;5053152;28;20108;-58
2022/01/05 07:27:39;;;;;;;4.35;0.40;;;;;;;;;;5052057;28;20021;-59
2022/01/05 07:30:06;;;;;;;2.58;0.60;;;;;;;;;;5052385;28;20049;-58
2022/01/05 07:32:32;;;;;;;2.03;0.55;;;;;;;;;;5048456;28;20033;-49
2022/01/05 07:34:58;;;;;;;5.10;0.50;;;;;;;;;;5054151;28;20063;-49
2022/01/05 07:37:25;;;;;;;2.03;0.68;;;;;;;;;;5052138;28;20052;-49
2022/01/05 07:39:51;;;;;;;4.90;0.57;;;;;;;;;;5051544;28;20261;-48
2022/01/05 07:42:17;;;;;;;4.93;0.57;;;;;;;;;;5052393;28;20029;-58
2022/01/05 07:44:43;;;;;;;3.47;0.50;;;;;;;;;;5063285;28;20054;-53
2022/01/05 07:47:09;;;;;;;3.72;0.65;;;;;;;;;;5071263;28;20037;-59
2022/01/05 07:49:35;;;;;;;3.97;0.82;;;;;;;;;;5069587;28;20419;-60
2022/01/05 07:52:01;;;;;;;3.38;0.77;;;;;;;;;;5051928;28;20033;-59
2022/01/05 07:54:27;;;;;;;3.15;0.70;;;;;;;;;;5051916;28;20108;-60
2022/01/05 07:56:53;;;;;;;3.60;0.50;;;;;;;;;;5068378;28;20527;-59
2022/01/05 07:59:19;;;;;;;8.82;0.73;;;;;;;;;;5072050;28;20025;-59
2022/01/05 08:01:45;;;;;;;2.10;0.40;;;;;;;;;;5059116;28;20455;-57
2022/01/05 08:04:11;;;;;;;2.30;1.05;;;;;;;;;;5056700;28;20032;-60
2022/01/05 08:06:37;;;;;;;4.03;0.80;;;;;;;;;;5056072;28;20029;-60
2022/01/05 08:09:03;;;;;;;4.93;1.42;;;;;;;;;;5068131;28;20059;-60
2022/01/05 08:11:29;;;;;;;2.38;0.70;;;;;;;;;;5064000;28;20103;-61
2022/01/05 08:13:55;;;;;;;2.83;1.00;;;;;;;;;;5050747;28;20434;-60
2022/01/05 08:16:21;;;;;;;7.78;1.20;;;;;;;;;;5051717;28;20025;-61
2022/01/05 08:18:47;;;;;;;2.30;1.10;;;;;;;;;;5051234;28;20108;-61
2022/01/05 08:21:13;;;;;;;3.45;1.30;;;;;;;;;;5051734;28;20462;-60
2022/01/05 08:23:39;;;;;;;2.15;0.80;;;;;;;;;;5053022;28;20098;-61
2022/01/05 08:26:05;;;;;;;2.75;1.20;;;;;;;;;;5051699;28;20458;-60
2022/01/05 08:28:32;;;;;;;3.03;0.80;;;;;;;;;;5051200;28;20029;-62
2022/01/05 08:30:58;;;;;;;4.80;1.42;;;;;;;;;;5050671;28;20070;-60
2022/01/05 08:33:24;;;;;;;2.15;0.85;;;;;;;;;;5064535;28;20033;-60
2022/01/05 08:35:50;;;;;;;4.63;1.10;;;;;;;;;;5050110;28;20029;-60
2022/01/05 08:38:17;;;;;;;2.35;1.25;;;;;;;;;;5064911;28;20109;-60
2022/01/05 08:40:43;;;;;;;3.28;1.65;;;;;;;;;;5070245;28;20108;-61
2022/01/05 08:43:10;;;;;;;3.92;1.05;;;;;;;;;;5071393;28;20043;-59
2022/01/05 08:45:36;;;;;;;2.25;0.90;;;;;;;;;;5071142;28;20471;-61
2022/01/05 08:48:03;;;;;;;2.17;1.15;;;;;;;;;;5084578;28;20362;-60
2022/01/05 08:50:30;;;;;;;4.07;1.35;;;;;;;;;;5091262;28;20028;-60
2022/01/05 08:52:57;;;;;;;3.40;0.93;;;;;;;;;;5090793;28;20075;-60
2022/01/05 08:55:24;;;;;;;2.67;0.98;;;;;;;;;;5076714;28;20024;-60
2022/01/05 08:57:51;;;;;;;2.10;0.80;;;;;;;;;;5070299;28;20040;-60
2022/01/05 09:00:17;;;;;;;1.77;0.80;;;;;;;;;;5071148;28;20023;-60
2022/01/05 09:02:44;;;;;;;2.35;1.20;;;;;;;;;;5069701;28;20032;-61
2022/01/05 09:05:10;;;;;;;2.22;1.00;;;;;;;;;;5069435;28;20233;-61
2022/01/05 09:07:36;;;;;;;2.80;0.90;;;;;;;;;;5089006;28;20027;-61
2022/01/05 09:10:04;;;;;;;2.90;1.30;;;;;;;;;;5090914;28;20457;-60
2022/01/05 09:12:30;;;;;;;2.05;0.95;;;;;;;;;;5090037;28;20512;-60
2022/01/05 09:14:56;;;;;;;1.67;0.70;;;;;;;;;;5083084;28;20023;-60
2022/01/05 09:17:24;;;;;;;1.13;0.77;;;;;;;;;;5070726;28;20020;-60
2022/01/05 09:19:50;;;;;;;1.15;0.65;;;;;;;;;;5070384;28;20032;-60
2022/01/05 09:22:16;;;;;;;2.65;0.70;;;;;;;;;;5070987;28;20041;-60
2022/01/05 09:24:42;;;;;;;1.25;0.70;;;;;;;;;;5086239;28;20024;-61
2022/01/05 09:27:08;;;;;;;1.85;0.68;;;;;;;;;;5091188;28;20464;-60
2022/01/05 09:29:34;;;;;;;3.13;1.20;;;;;;;;;;5089068;28;20028;-60
2022/01/05 09:32:05;;;;;;;2.42;0.82;;;;;;;;;;5091900;28;20032;-60
2022/01/05 09:34:31;;;;;;;4.38;1.58;;;;;;;;;;5094913;28;20058;-60
2022/01/05 09:37:10;;;;;;;2.33;1.40;;;;;;;;;;5070529;28;20056;-60
2022/01/05 09:42:22;;;;;;;3.17;1.13;;;;;;;;;;5074176;28;20110;-61
2022/01/05 09:44:49;;;;;;;1.08;0.68;;;;;;;;;;5073400;28;20162;-60
2022/01/05 09:47:15;;;;;;;1.80;1.10;;;;;;;;;;5056350;28;20025;-61
2022/01/05 09:50:00;;;;;;;2.08;0.73;;;;;;;;;;5054022;28;20029;-61
2022/01/05 09:52:27;;;;;;;2.42;0.70;;;;;;;;;;5054312;28;20025;-61
2022/01/05 09:54:53;;;;;;;2.05;1.00;;;;;;;;;;5055128;28;20032;-60
2022/01/05 09:57:21;;;;;;;3.08;1.20;;;;;;;;;;5073277;28;20055;-60
2022/01/05 09:59:47;;;;;;;1.92;1.10;;;;;;;;;;5073096;28;20024;-61
2022/01/05 10:02:15;;;;;;;2.13;1.17;;;;;;;;;;5072502;28;20029;-61
2022/01/05 10:04:41;;;;;;;1.10;0.77;;;;;;;;;;5073604;28;20472;-62
2022/01/05 10:07:10;;;;;;;2.85;0.85;;;;;;;;;;5072383;28;20024;-60
2022/01/05 10:09:40;;;;;;;3.38;0.88;;;;;;;;;;5073759;28;20064;-60
2022/01/05 10:12:06;;;;;;;1.33;0.60;;;;;;;;;;5066226;28;20040;-60
2022/01/05 10:14:32;;;;;;;2.13;0.88;;;;;;;;;;5054098;28;20055;-60
2022/01/05 10:17:05;;;;;;;2.72;0.80;;;;;;;;;;5052718;28;20381;-61
2022/01/05 10:19:31;;;;;;;2.22;0.98;;;;;;;;;;5053820;28;20086;-61
2022/01/05 10:21:57;;;;;;;3.42;1.25;;;;;;;;;;5072989;28;20028;-60
2022/01/05 10:24:44;;;;;;;3.28;0.90;;;;;;;;;;5059885;28;20031;-60
2022/01/05 10:27:17;;;;;;;2.08;0.80;;;;;;;;;;5035601;28;20025;-60
2022/01/05 10:29:52;;;;;;;1.83;0.70;;;;;;;;;;5052983;28;20060;-61
2022/01/05 10:32:19;;;;;;;1.13;0.75;;;;;;;;;;5052945;28;20369;-60
2022/01/05 10:34:58;;;;;;;2.55;0.90;;;;;;;;;;5066221;28;20505;-61
2022/01/05 10:37:24;;;;;;;2.03;0.70;;;;;;;;;;5065637;28;20498;-60
2022/01/05 10:40:03;;;;;;;2.90;0.88;;;;;;;;;;5052836;28;20040;-61
2022/01/05 10:42:32;;;;;;;1.85;0.77;;;;;;;;;;5053112;28;20041;-60
2022/01/05 10:44:59;;;;;;;4.13;1.00;;;;;;;;;;5057385;28;20351;-60
2022/01/05 10:47:25;;;;;;;1.48;0.77;;;;;;;;;;5073037;28;20024;-60
2022/01/05 10:49:54;;;;;;;3.08;0.88;;;;;;;;;;5066327;28;20356;-60
2022/01/05 10:52:22;;;;;;;1.77;0.70;;;;;;;;;;5053247;28;20040;-61
2022/01/05 10:54:49;;;;;;;3.53;1.10;;;;;;;;;;5062702;28;20036;-61
2022/01/05 10:57:15;;;;;;;1.77;0.80;;;;;;;;;;5073397;28;20350;-60
2022/01/05 10:59:42;;;;;;;1.48;0.70;;;;;;;;;;5071933;28;20024;-62
2022/01/05 11:02:23;;;;;;;1.40;0.63;;;;;;;;;;5055383;28;20040;-60
2022/01/05 11:04:53;;;;;;;1.47;0.73;;;;;;;;;;5052116;28;20473;-61
2022/01/05 11:07:21;;;;;;;2.22;0.95;;;;;;;;;;5052841;28;20267;-60
2022/01/05 11:09:54;;;;;;;1.02;0.60;;;;;;;;;;5069106;28;20170;-61
2022/01/05 11:12:20;;;;;;;1.88;0.85;;;;;;;;;;5072648;28;20043;-61
2022/01/05 11:14:46;;;;;;;1.77;1.10;;;;;;;;;;5071732;28;20096;-62
2022/01/05 11:17:17;;;;;;;1.40;0.70;;;;;;;;;;5072932;28;20032;-60
2022/01/05 11:19:43;;;;;;;2.67;0.70;;;;;;;;;;5072360;28;20025;-62
2022/01/05 11:22:14;;;;;;;2.13;1.15;;;;;;;;;;5072032;28;20033;-60
2022/01/05 11:24:43;;;;;;;1.27;0.65;;;;;;;;;;5058470;28;20040;-61
2022/01/05 11:27:20;;;;;;;1.60;0.60;;;;;;;;;;5055932;28;20035;-60
2022/01/05 11:29:47;;;;;;;3.78;1.08;;;;;;;;;;5060552;28;20095;-62
2022/01/05 11:32:16;;;;;;;6.60;1.38;;;;;;;;;;5054477;28;20410;-61
2022/01/05 11:34:45;;;;;;;2.08;1.15;;;;;;;;;;5054093;28;20025;-61
2022/01/05 11:37:11;;;;;;;1.65;0.63;;;;;;;;;;5072130;28;20049;-60
2022/01/05 11:39:42;;;;;;;1.40;0.70;;;;;;;;;;5072404;28;20021;-61
2022/01/05 11:42:10;;;;;;;1.48;0.85;;;;;;;;;;5070790;28;20031;-61
2022/01/05 11:44:45;;;;;;;1.20;0.68;;;;;;;;;;5071418;28;20031;-61
2022/01/05 11:47:31;;;;;;;2.78;0.90;;;;;;;;;;5071858;28;20025;-61
2022/01/05 11:50:15;;;;;;;1.38;0.70;;;;;;;;;;5071257;28;20074;-61
2022/01/05 11:52:55;;;;;;;1.67;0.88;;;;;;;;;;5071606;28;20044;-61
2022/01/05 11:55:21;;;;;;;2.63;0.82;;;;;;;;;;5046869;28;20385;-61
2022/01/05 11:58:25;;;;;;;2.10;0.90;;;;;;;;;;5051416;28;20103;-62
2022/01/05 12:01:10;;;;;;;1.42;0.50;;;;;;;;;;4959884;28;20053;-61
2022/01/05 12:03:52;;;;;;;2.17;0.80;;;;;;;;;;5048025;28;20045;-60
2022/01/05 12:06:19;;;;;;;2.40;1.08;;;;;;;;;;5051920;28;20051;-61
2022/01/05 12:08:46;;;;;;;4.22;1.05;;;;;;;;;;5051236;28;20109;-61
2022/01/05 12:11:31;;;;;;;1.92;0.60;;;;;;;;;;5033697;28;20108;-61
2022/01/05 12:13:58;;;;;;;3.30;0.90;;;;;;;;;;5061196;28;20060;-61
2022/01/05 12:16:24;;;;;;;4.97;1.35;;;;;;;;;;5071810;28;20025;-61
2022/01/05 12:19:06;;;;;;;2.17;0.82;;;;;;;;;;5070862;28;20091;-62
2022/01/05 12:21:46;;;;;;;2.83;1.00;;;;;;;;;;5071489;28;20042;-61
2022/01/05 12:24:13;;;;;;;2.85;1.52;;;;;;;;;;5067797;28;20033;-61
2022/01/05 12:26:39;;;;;;;1.92;0.85;;;;;;;;;;5071294;28;20103;-62
2022/01/05 12:29:05;;;;;;;1.35;0.70;;;;;;;;;;5069254;28;20025;-61
2022/01/05 12:31:58;;;;;;;1.30;0.50;;;;;;;;;;5059608;28;20036;-61
2022/01/05 12:34:42;;;;;;;3.47;1.20;;;;;;;;;;5047610;28;20032;-61
2022/01/05 12:37:27;;;;;;;1.63;0.70;;;;;;;;;;5050899;28;20045;-61
2022/01/05 12:39:56;;;;;;;3.42;1.13;;;;;;;;;;5053444;28;20039;-61
2022/01/05 12:42:22;;;;;;;2.88;0.85;;;;;;;;;;5051048;28;20025;-61
2022/01/05 12:44:48;;;;;;;1.13;0.63;;;;;;;;;;5050583;28;20516;-62
2022/01/05 12:47:16;;;;;;;1.90;0.50;;;;;;;;;;5070752;28;20024;-61
2022/01/05 12:49:42;;;;;;;2.42;0.88;;;;;;;;;;5071326;28;20163;-61
2022/01/05 12:52:14;;;;;;;2.08;0.90;;;;;;;;;;5070572;28;20036;-61
2022/01/05 12:54:44;;;;;;;3.17;0.60;;;;;;;;;;5070838;28;20443;-62
2022/01/05 12:57:18;;;;;;;1.65;0.70;;;;;;;;;;5056997;28;20032;-61
2022/01/05 12:59:50;;;;;;;2.25;0.90;;;;;;;;;;5050578;28;20028;-61
2022/01/05 13:02:29;;;;;;;4.05;0.95;;;;;;;;;;5059610;28;20500;-61
2022/01/05 13:04:57;;;;;;;5.70;1.30;;;;;;;;;;5050842;28;20045;-61
2022/01/05 13:07:24;;;;;;;1.25;0.60;;;;;;;;;;5064870;28;20028;-61
2022/01/05 13:09:52;;;;;;;2.97;0.93;;;;;;;;;;5076580;28;20044;-61
2022/01/05 13:12:19;;;;;;;2.40;0.70;;;;;;;;;;5060403;28;20429;-61
2022/01/05 13:14:50;;;;;;;3.47;0.90;;;;;;;;;;5054671;28;20025;-61
2022/01/05 13:17:16;;;;;;;2.47;1.00;;;;;;;;;;5060881;28;20048;-61
2022/01/05 13:19:47;;;;;;;2.42;0.73;;;;;;;;;;5056757;28;20032;-61
2022/01/05 13:22:28;;;;;;;2.38;1.30;;;;;;;;;;5057406;28;20036;-60
2022/01/05 13:24:54;;;;;;;1.45;0.90;;;;;;;;;;5052633;28;20058;-61
2022/01/05 13:27:21;;;;;;;3.08;1.02;;;;;;;;;;5075034;28;20028;-61
2022/01/05 13:29:48;;;;;;;2.30;0.80;;;;;;;;;;5074450;28;20095;-61
2022/01/05 13:32:15;;;;;;;4.70;1.23;;;;;;;;;;5061971;28;20067;-61
2022/01/05 13:34:47;;;;;;;1.80;0.70;;;;;;;;;;5072512;28;20050;-61
2022/01/05 13:37:13;;;;;;;;;;;;;;;;;;5071240;28;20063;-60
2022/01/05 13:39:44;;;;;;;4.85;1.55;;;;;;;;;;5074340;28;20361;-61
2022/01/05 13:42:16;;;;;;;2.08;1.02;;;;;;;;;;5069981;28;20024;-61
2022/01/05 13:44:43;;;;;;;2.17;1.00;;;;;;;;;;5074127;28;20033;-61
2022/01/05 13:47:10;;;;;;;1.40;0.77;;;;;;;;;;5057027;28;20046;-61
2022/01/05 13:49:36;;;;;;;2.55;0.98;;;;;;;;;;5054384;28;20086;-61
2022/01/05 13:52:04;;;;;;;1.38;0.73;;;;;;;;;;5069389;28;20383;-61
2022/01/05 13:54:31;;;;;;;2.40;0.63;;;;;;;;;;5074254;28;20024;-61
2022/01/05 13:56:57;;;;;;;1.98;0.75;;;;;;;;;;5072709;28;20032;-62
2022/01/05 13:59:23;;;;;;;2.50;0.77;;;;;;;;;;5073520;28;20025;-61
2022/01/05 14:02:00;;;;;;;1.48;0.57;;;;;;;;;;5064433;28;20407;-61
2022/01/05 14:04:26;;;;;;;2.45;0.82;;;;;;;;;;5054009;28;20037;-61
2022/01/05 14:06:59;;;;;;;1.35;0.70;;;;;;;;;;5064343;28;20036;-61
2022/01/05 14:09:29;;;;;;;3.10;0.75;;;;;;;;;;5066968;28;20482;-61
2022/01/05 14:11:57;;;;;;;3.80;2.03;;;;;;;;;;5072078;28;20028;-61
2022/01/05 14:14:24;;;;;;;3.63;1.23;;;;;;;;;;5073104;28;20028;-61
2022/01/05 14:16:50;;;;;;;4.57;1.00;;;;;;;;;;5054606;28;20064;-61
2022/01/05 14:19:29;;;;;;;3.35;0.88;;;;;;;;;;5053172;28;20238;-61
2022/01/05 14:22:08;;;;;;;2.58;0.65;;;;;;;;;;5053800;28;20029;-62
2022/01/05 14:24:41;;;;;;;2.28;1.05;;;;;;;;;;5057585;28;20024;-61
2022/01/05 14:27:14;;;;;;;3.35;0.60;;;;;;;;;;5053491;28;20104;-60
2022/01/05 14:29:42;;;;;;;0.95;0.57;;;;;;;;;;5057230;28;20032;-61
2022/01/05 14:32:12;;;;;;;2.10;1.05;;;;;;;;;;5055002;28;20029;-61
2022/01/05 14:34:41;;;;;;;1.88;0.70;;;;;;;;;;5055380;28;20044;-61
2022/01/05 14:37:09;;;;;;;1.20;0.70;;;;;;;;;;5063103;28;20052;-61
2022/01/05 14:39:39;;;;;;;2.20;1.10;;;;;;;;;;5056880;28;20059;-61
2022/01/05 14:42:10;;;;;;;1.10;0.65;;;;;;;;;;5061126;28;20059;-61
2022/01/05 14:44:37;;;;;;;2.63;0.70;;;;;;;;;;5064015;28;20020;-61
2022/01/05 14:47:06;;;;;;;1.95;0.75;;;;;;;;;;5037809;28;20532;-61
2022/01/05 14:49:34;;;;;;;2.15;1.08;;;;;;;;;;5065678;28;20040;-62